sensor_id;sensor_type;location;lat;lon;timestamp;P1;durP1;ratioP1;P2;durP2;ratioP2
1402;SDS011;696;48.546;9.896;2023-03-23T00:02:38;1.23;;;1.13;;
1402;SDS011;696;48.546;9.896;2023-03-23T00:07:29;5.45;;;1.35;;
1402;SDS011;696;48.546;9.896;2023-03-23T00:09:55;5.95;;;1.35;;
1402;SDS011;696;48.546;9.896;2023-03-23T00:12:27;7.22;;;1.25;;
1402;SDS011;696;48.546;9.896;2023-03-23T00:15:03;1.73;;;1.40;;
1402;SDS011;696;48.546;9.896;2023-03-23T00:17:29;4.53;;;2.03;;
1402;SDS011;696;48.546;9.896;2023-03-23T00:19:57;10.77;;;5.90;;
1402;SDS011;696;48.546;9.896;2023-03-23T00:22:23;20.00;;;9.27;;
1402;SDS011;696;48.546;9.896;2023-03-23T00:24:50;10.98;;;6.68;;
1402;SDS011;696;48.546;9.896;2023-03-23T00:27:16;14.88;;;6.80;;
1402;SDS011;696;48.546;9.896;2023-03-23T00:29:42;11.95;;;6.95;;
1402;SDS011;696;48.546;9.896;2023-03-23T00:32:09;14.52;;;6.80;;
1402;SDS011;696;48.546;9.896;2023-03-23T00:34:39;12.02;;;6.43;;
1402;SDS011;696;48.546;9.896;2023-03-23T00:37:06;13.05;;;6.18;;
1402;SDS011;696;48.546;9.896;2023-03-23T00:39:32;13.68;;;6.65;;
1402;SDS011;696;48.546;9.896;2023-03-23T00:41:57;18.80;;;6.10;;
1402;SDS011;696;48.546;9.896;2023-03-23T00:44:26;8.43;;;5.57;;
1402;SDS011;696;48.546;9.896;2023-03-23T00:46:57;15.02;;;4.43;;
1402;SDS011;696;48.546;9.896;2023-03-23T00:49:23;6.82;;;4.38;;
1402;SDS011;696;48.546;9.896;2023-03-23T00:51:50;6.95;;;3.47;;
1402;SDS011;696;48.546;9.896;2023-03-23T00:54:16;10.25;;;3.78;;
1402;SDS011;696;48.546;9.896;2023-03-23T00:56:41;8.32;;;4.07;;
1402;SDS011;696;48.546;9.896;2023-03-23T00:59:06;7.10;;;3.97;;
1402;SDS011;696;48.546;9.896;2023-03-23T01:01:32;4.63;;;3.28;;
1402;SDS011;696;48.546;9.896;2023-03-23T01:03:58;5.65;;;3.03;;
1402;SDS011;696;48.546;9.896;2023-03-23T01:06:29;5.75;;;3.00;;
1402;SDS011;696;48.546;9.896;2023-03-23T01:08:56;4.43;;;2.47;;
1402;SDS011;696;48.546;9.896;2023-03-23T01:11:22;3.95;;;3.17;;
1402;SDS011;696;48.546;9.896;2023-03-23T01:13:49;7.35;;;3.60;;
1402;SDS011;696;48.546;9.896;2023-03-23T01:16:14;8.00;;;3.13;;
1402;SDS011;696;48.546;9.896;2023-03-23T01:18:39;5.47;;;3.10;;
1402;SDS011;696;48.546;9.896;2023-03-23T01:21:06;5.18;;;2.80;;
1402;SDS011;696;48.546;9.896;2023-03-23T01:23:33;3.83;;;2.47;;
1402;SDS011;696;48.546;9.896;2023-03-23T01:26:02;5.47;;;2.47;;
1402;SDS011;696;48.546;9.896;2023-03-23T01:28:29;6.43;;;1.92;;
1402;SDS011;696;48.546;9.896;2023-03-23T01:30:59;3.55;;;2.30;;
1402;SDS011;696;48.546;9.896;2023-03-23T01:33:25;3.60;;;2.25;;
1402;SDS011;696;48.546;9.896;2023-03-23T01:35:50;3.40;;;1.92;;
1402;SDS011;696;48.546;9.896;2023-03-23T01:38:16;2.05;;;1.70;;
1402;SDS011;696;48.546;9.896;2023-03-23T01:40:41;2.42;;;1.67;;
1402;SDS011;696;48.546;9.896;2023-03-23T01:43:10;7.32;;;1.75;;
1402;SDS011;696;48.546;9.896;2023-03-23T01:45:38;8.88;;;1.80;;
1402;SDS011;696;48.546;9.896;2023-03-23T01:48:06;2.63;;;1.20;;
1402;SDS011;696;48.546;9.896;2023-03-23T01:50:40;1.58;;;1.25;;
1402;SDS011;696;48.546;9.896;2023-03-23T01:53:09;2.55;;;1.58;;
1402;SDS011;696;48.546;9.896;2023-03-23T01:55:36;2.10;;;1.40;;
1402;SDS011;696;48.546;9.896;2023-03-23T01:58:03;2.50;;;1.25;;
1402;SDS011;696;48.546;9.896;2023-03-23T02:00:29;1.65;;;1.13;;
1402;SDS011;696;48.546;9.896;2023-03-23T02:02:55;1.17;;;1.08;;
1402;SDS011;696;48.546;9.896;2023-03-23T02:05:30;1.50;;;1.10;;
1402;SDS011;696;48.546;9.896;2023-03-23T02:07:59;1.05;;;0.90;;
1402;SDS011;696;48.546;9.896;2023-03-23T02:10:28;1.85;;;1.38;;
1402;SDS011;696;48.546;9.896;2023-03-23T02:12:57;2.22;;;1.50;;
1402;SDS011;696;48.546;9.896;2023-03-23T02:15:27;1.58;;;1.48;;
1402;SDS011;696;48.546;9.896;2023-03-23T02:38:08;2.03;;;1.60;;
1402;SDS011;696;48.546;9.896;2023-03-23T02:40:32;2.03;;;1.52;;
1402;SDS011;696;48.546;9.896;2023-03-23T02:43:01;2.55;;;1.67;;
1402;SDS011;696;48.546;9.896;2023-03-23T02:45:27;3.38;;;1.77;;
1402;SDS011;696;48.546;9.896;2023-03-23T02:47:54;2.00;;;1.40;;
1402;SDS011;696;48.546;9.896;2023-03-23T02:50:21;1.70;;;1.45;;
1402;SDS011;696;48.546;9.896;2023-03-23T02:52:48;2.80;;;1.23;;
1402;SDS011;696;48.546;9.896;2023-03-23T02:55:15;3.08;;;1.40;;
1402;SDS011;696;48.546;9.896;2023-03-23T02:57:42;2.20;;;1.48;;
1402;SDS011;696;48.546;9.896;2023-03-23T03:00:11;2.85;;;1.80;;
1402;SDS011;696;48.546;9.896;2023-03-23T03:02:38;1.55;;;1.08;;
1402;SDS011;696;48.546;9.896;2023-03-23T03:08:00;1.25;;;1.15;;
1402;SDS011;696;48.546;9.896;2023-03-23T03:11:13;1.10;;;1.00;;
1402;SDS011;696;48.546;9.896;2023-03-23T03:21:32;1.65;;;1.10;;
1402;SDS011;696;48.546;9.896;2023-03-23T03:24:00;2.58;;;1.50;;
1402;SDS011;696;48.546;9.896;2023-03-23T03:26:27;2.20;;;1.77;;
1402;SDS011;696;48.546;9.896;2023-03-23T03:28:54;1.95;;;1.48;;
1402;SDS011;696;48.546;9.896;2023-03-23T03:31:27;4.45;;;1.55;;
1402;SDS011;696;48.546;9.896;2023-03-23T03:36:30;1.67;;;1.38;;
1402;SDS011;696;48.546;9.896;2023-03-23T03:39:00;1.35;;;1.25;;
1402;SDS011;696;48.546;9.896;2023-03-23T03:41:32;2.42;;;1.70;;
1402;SDS011;696;48.546;9.896;2023-03-23T03:43:59;1.33;;;1.23;;
1402;SDS011;696;48.546;9.896;2023-03-23T03:46:24;1.80;;;1.23;;
1402;SDS011;696;48.546;9.896;2023-03-23T03:48:52;1.10;;;1.00;;
1402;SDS011;696;48.546;9.896;2023-03-23T03:51:18;1.48;;;1.23;;
1402;SDS011;696;48.546;9.896;2023-03-23T03:53:43;2.42;;;1.27;;
1402;SDS011;696;48.546;9.896;2023-03-23T03:56:08;3.38;;;1.50;;
1402;SDS011;696;48.546;9.896;2023-03-23T03:58:34;1.70;;;1.25;;
1402;SDS011;696;48.546;9.896;2023-03-23T04:01:01;2.10;;;1.50;;
1402;SDS011;696;48.546;9.896;2023-03-23T04:03:28;3.78;;;1.83;;
1402;SDS011;696;48.546;9.896;2023-03-23T04:05:53;2.75;;;1.73;;
1402;SDS011;696;48.546;9.896;2023-03-23T04:08:20;4.40;;;1.45;;
1402;SDS011;696;48.546;9.896;2023-03-23T04:10:49;1.92;;;1.58;;
1402;SDS011;696;48.546;9.896;2023-03-23T04:13:15;3.33;;;1.73;;
1402;SDS011;696;48.546;9.896;2023-03-23T04:15:40;3.47;;;1.90;;
1402;SDS011;696;48.546;9.896;2023-03-23T04:18:06;1.83;;;1.25;;
1402;SDS011;696;48.546;9.896;2023-03-23T04:20:31;1.23;;;1.13;;
1402;SDS011;696;48.546;9.896;2023-03-23T04:22:57;3.10;;;1.65;;
1402;SDS011;696;48.546;9.896;2023-03-23T04:25:22;3.10;;;1.70;;
1402;SDS011;696;48.546;9.896;2023-03-23T04:27:49;2.90;;;1.73;;
1402;SDS011;696;48.546;9.896;2023-03-23T04:30:18;1.63;;;1.25;;
1402;SDS011;696;48.546;9.896;2023-03-23T04:32:48;2.67;;;1.90;;
1402;SDS011;696;48.546;9.896;2023-03-23T04:35:15;4.32;;;1.77;;
1402;SDS011;696;48.546;9.896;2023-03-23T04:37:41;2.67;;;1.75;;
1402;SDS011;696;48.546;9.896;2023-03-23T04:40:08;2.72;;;2.10;;
1402;SDS011;696;48.546;9.896;2023-03-23T04:42:37;3.28;;;2.13;;
1402;SDS011;696;48.546;9.896;2023-03-23T04:45:03;3.83;;;2.17;;
1402;SDS011;696;48.546;9.896;2023-03-23T04:47:31;2.50;;;1.80;;
1402;SDS011;696;48.546;9.896;2023-03-23T04:49:58;2.60;;;1.77;;
1402;SDS011;696;48.546;9.896;2023-03-23T04:52:27;6.20;;;2.03;;
1402;SDS011;696;48.546;9.896;2023-03-23T04:54:53;2.50;;;1.33;;
1402;SDS011;696;48.546;9.896;2023-03-23T04:57:21;4.43;;;2.60;;
1402;SDS011;696;48.546;9.896;2023-03-23T04:59:47;4.85;;;1.95;;
1402;SDS011;696;48.546;9.896;2023-03-23T05:02:12;3.60;;;2.38;;
1402;SDS011;696;48.546;9.896;2023-03-23T05:04:38;2.35;;;1.73;;
1402;SDS011;696;48.546;9.896;2023-03-23T05:07:05;2.78;;;2.33;;
1402;SDS011;696;48.546;9.896;2023-03-23T05:09:31;9.25;;;2.15;;
1402;SDS011;696;48.546;9.896;2023-03-23T05:11:56;6.07;;;3.95;;
1402;SDS011;696;48.546;9.896;2023-03-23T05:14:24;4.88;;;2.80;;
1402;SDS011;696;48.546;9.896;2023-03-23T05:16:50;4.60;;;3.20;;
1402;SDS011;696;48.546;9.896;2023-03-23T05:19:17;4.93;;;3.17;;
1402;SDS011;696;48.546;9.896;2023-03-23T05:21:42;8.02;;;2.60;;
1402;SDS011;696;48.546;9.896;2023-03-23T05:24:09;6.22;;;2.92;;
1402;SDS011;696;48.546;9.896;2023-03-23T05:26:35;4.28;;;2.63;;
1402;SDS011;696;48.546;9.896;2023-03-23T05:29:00;3.90;;;2.50;;
1402;SDS011;696;48.546;9.896;2023-03-23T05:31:25;7.75;;;3.85;;
1402;SDS011;696;48.546;9.896;2023-03-23T05:33:51;11.02;;;5.32;;
1402;SDS011;696;48.546;9.896;2023-03-23T05:36:17;11.25;;;6.13;;
1402;SDS011;696;48.546;9.896;2023-03-23T05:38:42;12.68;;;5.13;;
1402;SDS011;696;48.546;9.896;2023-03-23T05:41:10;5.13;;;3.70;;
1402;SDS011;696;48.546;9.896;2023-03-23T05:43:39;6.97;;;4.60;;
1402;SDS011;696;48.546;9.896;2023-03-23T05:46:05;5.57;;;3.03;;
1402;SDS011;696;48.546;9.896;2023-03-23T05:48:30;8.13;;;4.07;;
1402;SDS011;696;48.546;9.896;2023-03-23T05:50:56;7.10;;;4.10;;
1402;SDS011;696;48.546;9.896;2023-03-23T05:53:21;5.72;;;3.75;;
1402;SDS011;696;48.546;9.896;2023-03-23T05:55:48;5.57;;;3.70;;
1402;SDS011;696;48.546;9.896;2023-03-23T05:58:13;7.82;;;4.28;;
1402;SDS011;696;48.546;9.896;2023-03-23T06:00:39;4.13;;;3.08;;
1402;SDS011;696;48.546;9.896;2023-03-23T06:03:04;4.50;;;3.33;;
1402;SDS011;696;48.546;9.896;2023-03-23T06:05:30;11.63;;;3.47;;
1402;SDS011;696;48.546;9.896;2023-03-23T06:07:56;4.85;;;2.95;;
1402;SDS011;696;48.546;9.896;2023-03-23T06:10:21;4.47;;;2.58;;
1402;SDS011;696;48.546;9.896;2023-03-23T06:12:47;4.05;;;2.88;;
1402;SDS011;696;48.546;9.896;2023-03-23T06:15:15;4.47;;;3.00;;
1402;SDS011;696;48.546;9.896;2023-03-23T06:17:40;6.50;;;2.85;;
1402;SDS011;696;48.546;9.896;2023-03-23T06:20:06;4.82;;;3.20;;
1402;SDS011;696;48.546;9.896;2023-03-23T06:22:34;6.38;;;3.53;;
1402;SDS011;696;48.546;9.896;2023-03-23T06:24:59;5.65;;;3.58;;
1402;SDS011;696;48.546;9.896;2023-03-23T06:27:25;4.35;;;3.00;;
1402;SDS011;696;48.546;9.896;2023-03-23T06:29:50;5.72;;;3.25;;
1402;SDS011;696;48.546;9.896;2023-03-23T06:32:15;6.65;;;3.25;;
1402;SDS011;696;48.546;9.896;2023-03-23T06:34:41;9.82;;;3.30;;
1402;SDS011;696;48.546;9.896;2023-03-23T06:37:09;9.05;;;3.97;;
1402;SDS011;696;48.546;9.896;2023-03-23T06:39:35;5.90;;;4.20;;
1402;SDS011;696;48.546;9.896;2023-03-23T06:42:03;6.63;;;3.83;;
1402;SDS011;696;48.546;9.896;2023-03-23T06:44:28;8.43;;;3.35;;
1402;SDS011;696;48.546;9.896;2023-03-23T06:46:54;4.55;;;2.72;;
1402;SDS011;696;48.546;9.896;2023-03-23T06:49:19;3.70;;;2.65;;
1402;SDS011;696;48.546;9.896;2023-03-23T06:51:45;4.15;;;2.42;;
1402;SDS011;696;48.546;9.896;2023-03-23T06:54:10;5.70;;;3.05;;
1402;SDS011;696;48.546;9.896;2023-03-23T06:56:36;4.15;;;2.80;;
1402;SDS011;696;48.546;9.896;2023-03-23T06:59:01;5.57;;;2.60;;
1402;SDS011;696;48.546;9.896;2023-03-23T07:01:27;4.95;;;2.45;;
1402;SDS011;696;48.546;9.896;2023-03-23T07:03:53;5.05;;;2.40;;
1402;SDS011;696;48.546;9.896;2023-03-23T07:06:20;2.92;;;2.13;;
1402;SDS011;696;48.546;9.896;2023-03-23T07:08:46;2.35;;;2.15;;
1402;SDS011;696;48.546;9.896;2023-03-23T07:11:11;6.22;;;2.50;;
1402;SDS011;696;48.546;9.896;2023-03-23T07:13:37;3.80;;;2.10;;
1402;SDS011;696;48.546;9.896;2023-03-23T07:16:04;2.72;;;1.80;;
1402;SDS011;696;48.546;9.896;2023-03-23T07:18:31;4.03;;;2.22;;
1402;SDS011;696;48.546;9.896;2023-03-23T07:20:56;4.20;;;2.15;;
1402;SDS011;696;48.546;9.896;2023-03-23T07:23:21;3.45;;;1.90;;
1402;SDS011;696;48.546;9.896;2023-03-23T07:25:47;4.18;;;2.13;;
1402;SDS011;696;48.546;9.896;2023-03-23T07:28:13;1.92;;;1.70;;
1402;SDS011;696;48.546;9.896;2023-03-23T07:30:39;1.52;;;1.30;;
1402;SDS011;696;48.546;9.896;2023-03-23T07:33:06;7.53;;;2.15;;
1402;SDS011;696;48.546;9.896;2023-03-23T07:35:32;3.95;;;1.92;;
1402;SDS011;696;48.546;9.896;2023-03-23T07:37:58;4.60;;;1.70;;
1402;SDS011;696;48.546;9.896;2023-03-23T07:40:23;3.95;;;2.15;;
1402;SDS011;696;48.546;9.896;2023-03-23T07:42:53;2.20;;;1.70;;
1402;SDS011;696;48.546;9.896;2023-03-23T07:45:20;2.25;;;1.80;;
1402;SDS011;696;48.546;9.896;2023-03-23T07:47:45;2.88;;;1.63;;
1402;SDS011;696;48.546;9.896;2023-03-23T07:50:11;1.77;;;1.48;;
1402;SDS011;696;48.546;9.896;2023-03-23T07:52:37;2.97;;;1.58;;
1402;SDS011;696;48.546;9.896;2023-03-23T07:55:03;3.22;;;1.83;;
1402;SDS011;696;48.546;9.896;2023-03-23T07:57:30;2.17;;;1.90;;
1402;SDS011;696;48.546;9.896;2023-03-23T07:59:56;4.90;;;2.35;;
1402;SDS011;696;48.546;9.896;2023-03-23T08:02:22;5.53;;;1.95;;
1402;SDS011;696;48.546;9.896;2023-03-23T08:04:48;1.40;;;1.30;;
1402;SDS011;696;48.546;9.896;2023-03-23T08:07:13;2.78;;;1.88;;
1402;SDS011;696;48.546;9.896;2023-03-23T08:09:41;7.93;;;2.40;;
1402;SDS011;696;48.546;9.896;2023-03-23T08:12:06;2.53;;;1.50;;
1402;SDS011;696;48.546;9.896;2023-03-23T08:14:32;2.92;;;1.38;;
1402;SDS011;696;48.546;9.896;2023-03-23T08:16:57;2.47;;;1.88;;
1402;SDS011;696;48.546;9.896;2023-03-23T08:19:23;3.88;;;1.75;;
1402;SDS011;696;48.546;9.896;2023-03-23T08:21:49;4.22;;;1.58;;
1402;SDS011;696;48.546;9.896;2023-03-23T08:24:15;1.35;;;1.25;;
1402;SDS011;696;48.546;9.896;2023-03-23T08:26:40;11.13;;;2.08;;
1402;SDS011;696;48.546;9.896;2023-03-23T08:29:06;2.50;;;1.73;;
1402;SDS011;696;48.546;9.896;2023-03-23T08:31:32;1.83;;;1.48;;
1402;SDS011;696;48.546;9.896;2023-03-23T08:33:59;4.60;;;1.63;;
1402;SDS011;696;48.546;9.896;2023-03-23T08:36:25;3.58;;;1.67;;
1402;SDS011;696;48.546;9.896;2023-03-23T08:38:51;2.22;;;1.58;;
1402;SDS011;696;48.546;9.896;2023-03-23T08:41:17;2.85;;;1.60;;
1402;SDS011;696;48.546;9.896;2023-03-23T08:43:43;3.30;;;1.52;;
1402;SDS011;696;48.546;9.896;2023-03-23T08:46:08;3.38;;;1.52;;
1402;SDS011;696;48.546;9.896;2023-03-23T08:48:35;2.47;;;1.23;;
1402;SDS011;696;48.546;9.896;2023-03-23T08:51:02;4.20;;;1.60;;
1402;SDS011;696;48.546;9.896;2023-03-23T08:53:28;3.63;;;1.80;;
1402;SDS011;696;48.546;9.896;2023-03-23T08:56:06;3.30;;;1.67;;
1402;SDS011;696;48.546;9.896;2023-03-23T08:58:34;2.17;;;1.35;;
1402;SDS011;696;48.546;9.896;2023-03-23T09:01:00;2.97;;;1.77;;
1402;SDS011;696;48.546;9.896;2023-03-23T09:03:25;1.85;;;1.30;;
1402;SDS011;696;48.546;9.896;2023-03-23T09:05:51;1.38;;;1.17;;
1402;SDS011;696;48.546;9.896;2023-03-23T09:08:18;1.77;;;0.93;;
1402;SDS011;696;48.546;9.896;2023-03-23T09:10:43;2.33;;;1.30;;
1402;SDS011;696;48.546;9.896;2023-03-23T09:13:09;1.42;;;1.13;;
1402;SDS011;696;48.546;9.896;2023-03-23T09:15:34;1.73;;;1.20;;
1402;SDS011;696;48.546;9.896;2023-03-23T09:18:00;1.55;;;1.30;;
1402;SDS011;696;48.546;9.896;2023-03-23T09:20:26;2.95;;;1.63;;
1402;SDS011;696;48.546;9.896;2023-03-23T09:22:53;2.25;;;1.30;;
1402;SDS011;696;48.546;9.896;2023-03-23T09:25:20;1.88;;;1.40;;
1402;SDS011;696;48.546;9.896;2023-03-23T09:28:05;1.40;;;1.30;;
1402;SDS011;696;48.546;9.896;2023-03-23T09:30:31;3.97;;;1.70;;
1402;SDS011;696;48.546;9.896;2023-03-23T09:32:58;4.57;;;1.60;;
1402;SDS011;696;48.546;9.896;2023-03-23T09:35:25;2.20;;;1.00;;
1402;SDS011;696;48.546;9.896;2023-03-23T09:37:52;1.83;;;1.10;;
1402;SDS011;696;48.546;9.896;2023-03-23T09:40:19;3.50;;;1.33;;
1402;SDS011;696;48.546;9.896;2023-03-23T09:53:48;1.98;;;1.25;;
1402;SDS011;696;48.546;9.896;2023-03-23T09:56:16;1.15;;;1.05;;
1402;SDS011;696;48.546;9.896;2023-03-23T10:01:35;1.48;;;1.20;;
1402;SDS011;696;48.546;9.896;2023-03-23T10:04:09;1.35;;;0.93;;
1402;SDS011;696;48.546;9.896;2023-03-23T10:06:37;1.33;;;0.90;;
1402;SDS011;696;48.546;9.896;2023-03-23T10:09:03;1.10;;;1.00;;
1402;SDS011;696;48.546;9.896;2023-03-23T10:11:44;1.35;;;0.93;;
1402;SDS011;696;48.546;9.896;2023-03-23T10:17:15;1.88;;;0.98;;
1402;SDS011;696;48.546;9.896;2023-03-23T10:22:36;0.82;;;0.77;;
1402;SDS011;696;48.546;9.896;2023-03-23T10:27:38;1.75;;;1.05;;
1402;SDS011;696;48.546;9.896;2023-03-23T10:30:21;1.98;;;0.98;;
1402;SDS011;696;48.546;9.896;2023-03-23T10:35:53;1.48;;;0.93;;
1402;SDS011;696;48.546;9.896;2023-03-23T10:38:33;1.00;;;0.90;;
1402;SDS011;696;48.546;9.896;2023-03-23T10:41:04;0.80;;;0.77;;
1402;SDS011;696;48.546;9.896;2023-03-23T10:43:33;0.90;;;0.82;;
1402;SDS011;696;48.546;9.896;2023-03-23T10:46:04;2.33;;;0.95;;
1402;SDS011;696;48.546;9.896;2023-03-23T10:48:37;1.25;;;0.90;;
1402;SDS011;696;48.546;9.896;2023-03-23T10:51:04;1.40;;;0.80;;
1402;SDS011;696;48.546;9.896;2023-03-23T10:53:38;0.95;;;0.90;;
1402;SDS011;696;48.546;9.896;2023-03-23T10:56:19;4.63;;;1.50;;
1402;SDS011;696;48.546;9.896;2023-03-23T10:58:54;1.98;;;1.00;;
1402;SDS011;696;48.546;9.896;2023-03-23T11:01:20;2.08;;;0.98;;
1402;SDS011;696;48.546;9.896;2023-03-23T11:03:54;1.90;;;1.00;;
1402;SDS011;696;48.546;9.896;2023-03-23T11:06:27;2.83;;;1.45;;
1402;SDS011;696;48.546;9.896;2023-03-23T11:08:56;2.10;;;0.90;;
1402;SDS011;696;48.546;9.896;2023-03-23T11:11:32;1.98;;;1.08;;
1402;SDS011;696;48.546;9.896;2023-03-23T11:14:13;1.48;;;1.08;;
1402;SDS011;696;48.546;9.896;2023-03-23T11:19:30;2.13;;;1.23;;
1402;SDS011;696;48.546;9.896;2023-03-23T11:24:30;2.55;;;1.05;;
1402;SDS011;696;48.546;9.896;2023-03-23T11:26:57;1.35;;;1.00;;
1402;SDS011;696;48.546;9.896;2023-03-23T11:29:24;8.50;;;1.08;;
1402;SDS011;696;48.546;9.896;2023-03-23T11:34:30;2.67;;;1.35;;
1402;SDS011;696;48.546;9.896;2023-03-23T11:37:05;2.10;;;1.02;;
1402;SDS011;696;48.546;9.896;2023-03-23T11:39:33;3.13;;;1.40;;
1402;SDS011;696;48.546;9.896;2023-03-23T11:42:13;1.42;;;1.08;;
1402;SDS011;696;48.546;9.896;2023-03-23T11:44:44;2.20;;;1.50;;
1402;SDS011;696;48.546;9.896;2023-03-23T11:49:45;1.48;;;1.10;;
1402;SDS011;696;48.546;9.896;2023-03-23T11:52:19;1.35;;;0.98;;
1402;SDS011;696;48.546;9.896;2023-03-23T11:54:47;1.85;;;1.17;;
1402;SDS011;696;48.546;9.896;2023-03-23T11:57:17;1.40;;;1.20;;
1402;SDS011;696;48.546;9.896;2023-03-23T11:59:43;1.25;;;0.70;;
1402;SDS011;696;48.546;9.896;2023-03-23T12:05:15;1.67;;;0.90;;
1402;SDS011;696;48.546;9.896;2023-03-23T12:16:42;1.05;;;0.93;;
1402;SDS011;696;48.546;9.896;2023-03-23T12:19:28;1.38;;;1.10;;
1402;SDS011;696;48.546;9.896;2023-03-23T12:22:10;1.38;;;1.10;;
1402;SDS011;696;48.546;9.896;2023-03-23T12:27:14;1.63;;;1.10;;
1402;SDS011;696;48.546;9.896;2023-03-23T12:32:51;1.25;;;1.00;;
1402;SDS011;696;48.546;9.896;2023-03-23T12:35:29;1.15;;;0.85;;
1402;SDS011;696;48.546;9.896;2023-03-23T12:45:52;2.35;;;1.50;;
1402;SDS011;696;48.546;9.896;2023-03-23T12:48:26;0.70;;;0.70;;
1402;SDS011;696;48.546;9.896;2023-03-23T13:01:55;1.92;;;1.08;;
1402;SDS011;696;48.546;9.896;2023-03-23T13:07:03;1.65;;;1.15;;
1402;SDS011;696;48.546;9.896;2023-03-23T13:12:08;1.92;;;1.20;;
1402;SDS011;696;48.546;9.896;2023-03-23T13:28:21;1.52;;;1.30;;
1402;SDS011;696;48.546;9.896;2023-03-23T13:30:58;2.30;;;1.55;;
1402;SDS011;696;48.546;9.896;2023-03-23T13:33:28;1.45;;;1.10;;
1402;SDS011;696;48.546;9.896;2023-03-23T13:35:55;1.13;;;1.00;;
1402;SDS011;696;48.546;9.896;2023-03-23T13:38:25;6.93;;;1.67;;
1402;SDS011;696;48.546;9.896;2023-03-23T13:40:51;1.73;;;1.00;;
1402;SDS011;696;48.546;9.896;2023-03-23T13:43:25;2.03;;;1.17;;
1402;SDS011;696;48.546;9.896;2023-03-23T13:46:23;2.63;;;1.42;;
1402;SDS011;696;48.546;9.896;2023-03-23T13:59:29;2.00;;;1.20;;
1402;SDS011;696;48.546;9.896;2023-03-23T14:02:33;1.75;;;1.30;;
1402;SDS011;696;48.546;9.896;2023-03-23T14:04:55;1.73;;;1.30;;
1402;SDS011;696;48.546;9.896;2023-03-23T14:07:21;2.65;;;1.33;;
1402;SDS011;696;48.546;9.896;2023-03-23T14:09:49;1.67;;;1.10;;
1402;SDS011;696;48.546;9.896;2023-03-23T14:12:16;3.05;;;1.60;;
1402;SDS011;696;48.546;9.896;2023-03-23T14:14:47;2.97;;;1.83;;
1402;SDS011;696;48.546;9.896;2023-03-23T14:19:54;2.60;;;1.30;;
1402;SDS011;696;48.546;9.896;2023-03-23T14:22:25;4.38;;;1.08;;
1402;SDS011;696;48.546;9.896;2023-03-23T14:24:58;1.27;;;1.13;;
1402;SDS011;696;48.546;9.896;2023-03-23T14:27:25;1.52;;;1.23;;
1402;SDS011;696;48.546;9.896;2023-03-23T14:29:58;1.85;;;1.38;;
1402;SDS011;696;48.546;9.896;2023-03-23T14:32:24;3.20;;;1.33;;
1402;SDS011;696;48.546;9.896;2023-03-23T14:34:53;2.80;;;1.33;;
1402;SDS011;696;48.546;9.896;2023-03-23T14:37:18;1.75;;;1.52;;
1402;SDS011;696;48.546;9.896;2023-03-23T14:39:46;1.35;;;1.25;;
1402;SDS011;696;48.546;9.896;2023-03-23T14:42:14;0.95;;;0.95;;
1402;SDS011;696;48.546;9.896;2023-03-23T14:44:46;3.45;;;1.40;;
1402;SDS011;696;48.546;9.896;2023-03-23T14:47:20;1.77;;;1.35;;
1402;SDS011;696;48.546;9.896;2023-03-23T14:49:52;3.20;;;1.15;;
1402;SDS011;696;48.546;9.896;2023-03-23T14:52:18;3.05;;;1.65;;
1402;SDS011;696;48.546;9.896;2023-03-23T14:54:47;2.47;;;1.40;;
1402;SDS011;696;48.546;9.896;2023-03-23T14:57:14;4.38;;;1.50;;
1402;SDS011;696;48.546;9.896;2023-03-23T14:59:44;2.10;;;1.38;;
1402;SDS011;696;48.546;9.896;2023-03-23T15:02:16;1.30;;;1.20;;
1402;SDS011;696;48.546;9.896;2023-03-23T15:04:45;1.40;;;1.30;;
1402;SDS011;696;48.546;9.896;2023-03-23T15:07:14;1.85;;;1.02;;
1402;SDS011;696;48.546;9.896;2023-03-23T15:09:42;2.00;;;1.20;;
1402;SDS011;696;48.546;9.896;2023-03-23T15:15:01;1.48;;;1.25;;
1402;SDS011;696;48.546;9.896;2023-03-23T15:17:29;1.17;;;0.90;;
1402;SDS011;696;48.546;9.896;2023-03-23T15:19:56;1.77;;;1.20;;
1402;SDS011;696;48.546;9.896;2023-03-23T15:22:27;2.72;;;1.33;;
1402;SDS011;696;48.546;9.896;2023-03-23T15:27:33;1.70;;;1.30;;
1402;SDS011;696;48.546;9.896;2023-03-23T15:32:47;1.92;;;1.23;;
1402;SDS011;696;48.546;9.896;2023-03-23T15:35:17;2.35;;;1.02;;
1402;SDS011;696;48.546;9.896;2023-03-23T15:37:49;1.05;;;0.93;;
1402;SDS011;696;48.546;9.896;2023-03-23T15:40:17;1.13;;;1.02;;
1402;SDS011;696;48.546;9.896;2023-03-23T15:42:44;1.30;;;1.05;;
1402;SDS011;696;48.546;9.896;2023-03-23T15:47:43;2.90;;;1.20;;
1402;SDS011;696;48.546;9.896;2023-03-23T15:50:22;1.52;;;1.20;;
1402;SDS011;696;48.546;9.896;2023-03-23T15:52:58;2.25;;;1.27;;
1402;SDS011;696;48.546;9.896;2023-03-23T15:55:28;3.40;;;1.42;;
1402;SDS011;696;48.546;9.896;2023-03-23T15:57:56;4.15;;;1.52;;
1402;SDS011;696;48.546;9.896;2023-03-23T16:00:23;1.30;;;1.20;;
1402;SDS011;696;48.546;9.896;2023-03-23T16:02:52;2.63;;;1.45;;
1402;SDS011;696;48.546;9.896;2023-03-23T16:05:24;2.00;;;1.40;;
1402;SDS011;696;48.546;9.896;2023-03-23T16:07:49;5.00;;;1.90;;
1402;SDS011;696;48.546;9.896;2023-03-23T16:10:17;1.40;;;1.05;;
1402;SDS011;696;48.546;9.896;2023-03-23T16:12:44;2.08;;;1.40;;
1402;SDS011;696;48.546;9.896;2023-03-23T16:15:10;2.92;;;1.55;;
1402;SDS011;696;48.546;9.896;2023-03-23T16:17:36;1.83;;;1.35;;
1402;SDS011;696;48.546;9.896;2023-03-23T16:20:01;2.25;;;1.30;;
1402;SDS011;696;48.546;9.896;2023-03-23T16:22:31;2.03;;;1.30;;
1402;SDS011;696;48.546;9.896;2023-03-23T16:24:56;1.27;;;1.17;;
1402;SDS011;696;48.546;9.896;2023-03-23T16:27:21;2.35;;;1.27;;
1402;SDS011;696;48.546;9.896;2023-03-23T16:29:47;3.72;;;2.33;;
1402;SDS011;696;48.546;9.896;2023-03-23T16:32:12;1.48;;;1.35;;
1402;SDS011;696;48.546;9.896;2023-03-23T16:34:38;1.58;;;1.48;;
1402;SDS011;696;48.546;9.896;2023-03-23T16:37:03;1.70;;;1.30;;
1402;SDS011;696;48.546;9.896;2023-03-23T16:39:30;1.50;;;1.38;;
1402;SDS011;696;48.546;9.896;2023-03-23T16:41:56;2.42;;;1.48;;
1402;SDS011;696;48.546;9.896;2023-03-23T16:44:21;2.90;;;1.60;;
1402;SDS011;696;48.546;9.896;2023-03-23T16:46:46;2.78;;;1.50;;
1402;SDS011;696;48.546;9.896;2023-03-23T16:49:12;3.40;;;1.77;;
1402;SDS011;696;48.546;9.896;2023-03-23T16:51:37;2.25;;;1.60;;
1402;SDS011;696;48.546;9.896;2023-03-23T16:54:03;3.92;;;1.83;;
1402;SDS011;696;48.546;9.896;2023-03-23T16:56:28;1.30;;;1.20;;
1402;SDS011;696;48.546;9.896;2023-03-23T16:58:53;3.92;;;1.55;;
1402;SDS011;696;48.546;9.896;2023-03-23T17:01:19;2.15;;;1.60;;
1402;SDS011;696;48.546;9.896;2023-03-23T17:03:44;2.13;;;1.55;;
1402;SDS011;696;48.546;9.896;2023-03-23T17:06:10;2.92;;;1.70;;
1402;SDS011;696;48.546;9.896;2023-03-23T17:08:35;2.20;;;1.48;;
1402;SDS011;696;48.546;9.896;2023-03-23T17:11:00;3.60;;;1.60;;
1402;SDS011;696;48.546;9.896;2023-03-23T17:13:26;3.42;;;1.90;;
1402;SDS011;696;48.546;9.896;2023-03-23T17:15:52;4.68;;;1.90;;
1402;SDS011;696;48.546;9.896;2023-03-23T17:18:20;2.33;;;1.80;;
1402;SDS011;696;48.546;9.896;2023-03-23T17:20:45;3.38;;;2.00;;
1402;SDS011;696;48.546;9.896;2023-03-23T17:23:10;1.98;;;1.52;;
1402;SDS011;696;48.546;9.896;2023-03-23T17:25:36;3.08;;;1.75;;
1402;SDS011;696;48.546;9.896;2023-03-23T17:28:01;1.75;;;1.45;;
1402;SDS011;696;48.546;9.896;2023-03-23T17:30:27;2.33;;;1.50;;
1402;SDS011;696;48.546;9.896;2023-03-23T17:32:52;2.33;;;1.80;;
1402;SDS011;696;48.546;9.896;2023-03-23T17:35:18;3.10;;;2.17;;
1402;SDS011;696;48.546;9.896;2023-03-23T17:37:43;2.00;;;1.50;;
1402;SDS011;696;48.546;9.896;2023-03-23T17:40:09;2.75;;;1.75;;
1402;SDS011;696;48.546;9.896;2023-03-23T17:42:35;2.40;;;1.52;;
1402;SDS011;696;48.546;9.896;2023-03-23T17:45:02;2.10;;;1.60;;
1402;SDS011;696;48.546;9.896;2023-03-23T17:47:31;2.45;;;1.88;;
1402;SDS011;696;48.546;9.896;2023-03-23T17:49:57;3.47;;;2.03;;
1402;SDS011;696;48.546;9.896;2023-03-23T17:52:22;2.17;;;1.90;;
1402;SDS011;696;48.546;9.896;2023-03-23T17:54:48;1.85;;;1.40;;
1402;SDS011;696;48.546;9.896;2023-03-23T17:57:13;3.70;;;1.80;;
1402;SDS011;696;48.546;9.896;2023-03-23T17:59:39;1.77;;;1.67;;
1402;SDS011;696;48.546;9.896;2023-03-23T18:02:04;2.67;;;1.75;;
1402;SDS011;696;48.546;9.896;2023-03-23T18:04:30;2.40;;;1.38;;
1402;SDS011;696;48.546;9.896;2023-03-23T18:06:56;2.08;;;1.88;;